sensor_id;sensor_type;location;lat;lon;timestamp;pressure;altitude;pressure_sealevel;temperature;humidity
6094;BME280;19964;42.060;24.700;2023-12-20T00:00:38;97841.50;;;2.86;100.00
6094;BME280;19964;42.060;24.700;2023-12-20T00:03:04;97849.44;;;2.91;100.00
6094;BME280;19964;42.060;24.700;2023-12-20T00:05:31;97855.88;;;2.87;100.00
6094;BME280;19964;42.060;24.700;2023-12-20T00:07:58;97846.63;;;2.86;100.00
6094;BME280;19964;42.060;24.700;2023-12-20T00:10:25;97850.63;;;2.81;100.00
6094;BME280;19964;42.060;24.700;2023-12-20T00:12:52;97846.47;;;2.80;100.00
6094;BME280;19964;42.060;24.700;2023-12-20T00:15:20;97838.41;;;2.60;100.00
6094;BME280;19964;42.060;24.700;2023-12-20T00:17:47;97856.00;;;2.63;100.00
6094;BME280;19964;42.060;24.700;2023-12-20T00:20:14;97847.22;;;2.57;100.00
6094;BME280;19964;42.060;24.700;2023-12-20T00:22:41;97846.41;;;2.57;100.00
6094;BME280;19964;42.060;24.700;2023-12-20T00:25:08;97840.69;;;2.55;100.00
6094;BME280;19964;42.060;24.700;2023-12-20T00:27:35;97846.50;;;2.71;100.00
6094;BME280;19964;42.060;24.700;2023-12-20T00:30:02;97850.34;;;2.67;100.00
6094;BME280;19964;42.060;24.700;2023-12-20T00:32:30;97844.97;;;2.62;100.00
6094;BME280;19964;42.060;24.700;2023-12-20T00:34:57;97843.22;;;2.55;100.00
6094;BME280;19964;42.060;24.700;2023-12-20T00:37:24;97833.53;;;2.34;100.00
6094;BME280;19964;42.060;24.700;2023-12-20T00:39:50;97825.22;;;2.40;100.00
6094;BME280;19964;42.060;24.700;2023-12-20T00:42:17;97812.00;;;2.29;100.00
6094;BME280;19964;42.060;24.700;2023-12-20T00:44:44;97796.91;;;1.95;100.00
6094;BME280;19964;42.060;24.700;2023-12-20T00:47:11;97800.75;;;1.99;100.00
6094;BME280;19964;42.060;24.700;2023-12-20T00:49:40;97816.22;;;2.06;100.00
6094;BME280;19964;42.060;24.700;2023-12-20T00:52:06;97810.19;;;1.99;100.00
6094;BME280;19964;42.060;24.700;2023-12-20T00:54:33;97805.53;;;2.02;100.00
6094;BME280;19964;42.060;24.700;2023-12-20T00:57:00;97801.69;;;2.14;100.00
6094;BME280;19964;42.060;24.700;2023-12-20T00:59:27;97784.44;;;2.08;100.00
6094;BME280;19964;42.060;24.700;2023-12-20T01:01:54;97797.69;;;2.12;100.00
6094;BME280;19964;42.060;24.700;2023-12-20T01:04:21;97793.03;;;2.15;100.00
6094;BME280;19964;42.060;24.700;2023-12-20T01:06:49;97781.72;;;2.10;100.00
6094;BME280;19964;42.060;24.700;2023-12-20T01:09:16;97783.47;;;2.09;100.00
6094;BME280;19964;42.060;24.700;2023-12-20T01:11:44;97786.97;;;2.16;100.00
6094;BME280;19964;42.060;24.700;2023-12-20T01:14:11;97767.97;;;2.11;100.00
6094;BME280;19964;42.060;24.700;2023-12-20T01:16:38;97780.91;;;2.09;100.00
6094;BME280;19964;42.060;24.700;2023-12-20T01:19:06;97777.88;;;2.14;100.00
6094;BME280;19964;42.060;24.700;2023-12-20T01:21:33;97776.13;;;2.14;100.00
6094;BME280;19964;42.060;24.700;2023-12-20T01:24:01;97775.47;;;2.20;100.00
6094;BME280;19964;42.060;24.700;2023-12-20T01:26:28;97768.72;;;2.27;100.00
6094;BME280;19964;42.060;24.700;2023-12-20T01:28:55;97756.66;;;2.05;100.00
6094;BME280;19964;42.060;24.700;2023-12-20T01:31:22;97745.31;;;2.08;100.00
6094;BME280;19964;42.060;24.700;2023-12-20T01:33:48;97754.75;;;2.07;100.00
6094;BME280;19964;42.060;24.700;2023-12-20T01:36:15;97756.66;;;2.05;100.00
6094;BME280;19964;42.060;24.700;2023-12-20T01:38:42;97757.81;;;2.03;100.00
6094;BME280;19964;42.060;24.700;2023-12-20T01:41:11;97739.59;;;1.98;100.00
6094;BME280;19964;42.060;24.700;2023-12-20T01:43:38;97731.28;;;2.04;100.00
6094;BME280;19964;42.060;24.700;2023-12-20T01:46:05;97745.28;;;2.16;100.00
6094;BME280;19964;42.060;24.700;2023-12-20T01:48:32;97739.56;;;2.14;100.00
6094;BME280;19964;42.060;24.700;2023-12-20T01:50:59;97739.84;;;2.19;100.00
6094;BME280;19964;42.060;24.700;2023-12-20T01:53:27;97726.00;;;2.05;100.00
6094;BME280;19964;42.060;24.700;2023-12-20T01:55:55;97725.88;;;1.99;100.00
6094;BME280;19964;42.060;24.700;2023-12-20T01:58:25;97723.78;;;2.02;100.00
6094;BME280;19964;42.060;24.700;2023-12-20T02:00:52;97710.22;;;2.02;100.00
6094;BME280;19964;42.060;24.700;2023-12-20T02:03:20;97716.13;;;2.02;100.00
6094;BME280;19964;42.060;24.700;2023-12-20T02:05:48;97723.63;;;2.04;100.00
6094;BME280;19964;42.060;24.700;2023-12-20T02:08:15;97716.94;;;2.03;100.00
6094;BME280;19964;42.060;24.700;2023-12-20T02:10:41;97716.28;;;2.09;100.00
6094;BME280;19964;42.060;24.700;2023-12-20T02:13:08;97713.56;;;2.02;100.00
6094;BME280;19964;42.060;24.700;2023-12-20T02:15:36;97707.19;;;1.98;100.00
6094;BME280;19964;42.060;24.700;2023-12-20T02:18:04;97648.91;;;1.63;100.00
6094;BME280;19964;42.060;24.700;2023-12-20T02:20:31;97703.66;;;1.99;100.00
6094;BME280;19964;42.060;24.700;2023-12-20T02:22:59;97699.38;;;2.00;100.00
6094;BME280;19964;42.060;24.700;2023-12-20T02:25:26;97682.66;;;1.89;100.00
6094;BME280;19964;42.060;24.700;2023-12-20T02:27:53;97695.66;;;2.10;100.00
6094;BME280;19964;42.060;24.700;2023-12-20T02:30:20;97696.63;;;2.01;100.00
6094;BME280;19964;42.060;24.700;2023-12-20T02:32:48;97693.38;;;1.85;100.00
6094;BME280;19964;42.060;24.700;2023-12-20T02:35:15;97695.25;;;1.91;100.00
6094;BME280;19964;42.060;24.700;2023-12-20T02:37:42;97696.56;;;1.78;100.00
6094;BME280;19964;42.060;24.700;2023-12-20T02:40:11;97688.13;;;1.78;100.00
6094;BME280;19964;42.060;24.700;2023-12-20T02:42:38;97688.25;;;1.85;100.00
6094;BME280;19964;42.060;24.700;2023-12-20T02:45:05;97678.69;;;1.87;100.00
6094;BME280;19964;42.060;24.700;2023-12-20T02:47:32;97675.16;;;1.88;100.00
6094;BME280;19964;42.060;24.700;2023-12-20T02:49:59;97680.13;;;1.89;100.00
6094;BME280;19964;42.060;24.700;2023-12-20T02:52:28;97680.13;;;1.81;100.00
6094;BME280;19964;42.060;24.700;2023-12-20T02:54:55;97676.13;;;1.87;100.00
6094;BME280;19964;42.060;24.700;2023-12-20T02:57:24;97665.72;;;1.96;100.00
6094;BME280;19964;42.060;24.700;2023-12-20T02:59:50;97669.56;;;1.92;100.00
6094;BME280;19964;42.060;24.700;2023-12-20T03:02:17;97672.28;;;1.91;100.00
6094;BME280;19964;42.060;24.700;2023-12-20T03:04:45;97660.34;;;1.83;100.00
6094;BME280;19964;42.060;24.700;2023-12-20T03:07:11;97628.25;;;1.42;100.00
6094;BME280;19964;42.060;24.700;2023-12-20T03:09:38;97651.31;;;1.56;100.00
6094;BME280;19964;42.060;24.700;2023-12-20T03:12:05;97642.91;;;1.48;100.00
6094;BME280;19964;42.060;24.700;2023-12-20T03:14:34;97656.13;;;1.51;100.00
6094;BME280;19964;42.060;24.700;2023-12-20T03:17:00;97659.50;;;1.52;100.00
6094;BME280;19964;42.060;24.700;2023-12-20T03:19:27;97651.50;;;1.55;100.00
6094;BME280;19964;42.060;24.700;2023-12-20T03:21:54;97642.72;;;1.57;100.00
6094;BME280;19964;42.060;24.700;2023-12-20T03:24:21;97590.03;;;1.18;100.00
6094;BME280;19964;42.060;24.700;2023-12-20T03:26:48;97634.31;;;1.41;100.00
6094;BME280;19964;42.060;24.700;2023-12-20T03:29:15;97635.25;;;1.48;100.00
6094;BME280;19964;42.060;24.700;2023-12-20T03:31:43;97637.34;;;1.44;100.00
6094;BME280;19964;42.060;24.700;2023-12-20T03:34:11;97634.63;;;1.46;100.00
6094;BME280;19964;42.060;24.700;2023-12-20T03:36:38;97630.47;;;1.45;100.00
6094;BME280;19964;42.060;24.700;2023-12-20T03:39:05;97617.69;;;1.45;100.00
6094;BME280;19964;42.060;24.700;2023-12-20T03:41:32;97632.34;;;1.51;100.00
6094;BME280;19964;42.060;24.700;2023-12-20T03:43:59;97629.53;;;1.46;100.00
6094;BME280;19964;42.060;24.700;2023-12-20T03:46:26;97640.19;;;1.49;100.00
6094;BME280;19964;42.060;24.700;2023-12-20T03:48:54;97633.84;;;1.37;100.00
6094;BME280;19964;42.060;24.700;2023-12-20T03:51:21;97634.63;;;1.38;100.00
6094;BME280;19964;42.060;24.700;2023-12-20T03:53:48;97627.94;;;1.37;100.00
6094;BME280;19964;42.060;24.700;2023-12-20T03:56:15;97643.09;;;1.38;100.00
6094;BME280;19964;42.060;24.700;2023-12-20T03:58:42;97633.03;;;1.37;100.00
6094;BME280;19964;42.060;24.700;2023-12-20T04:01:09;97627.28;;;1.43;100.00
6094;BME280;19964;42.060;24.700;2023-12-20T04:03:38;97625.34;;;1.45;100.00
6094;BME280;19964;42.060;24.700;2023-12-20T04:06:07;97611.66;;;1.46;100.00
6094;BME280;19964;42.060;24.700;2023-12-20T04:08:33;97569.47;;;1.19;100.00
6094;BME280;19964;42.060;24.700;2023-12-20T04:11:00;97631.03;;;1.63;100.00
6094;BME280;19964;42.060;24.700;2023-12-20T04:13:27;97631.22;;;1.61;100.00
6094;BME280;19964;42.060;24.700;2023-12-20T04:15:54;97623.72;;;1.60;100.00
6094;BME280;19964;42.060;24.700;2023-12-20T04:18:21;97627.84;;;1.69;100.00
6094;BME280;19964;42.060;24.700;2023-12-20T04:20:48;97631.75;;;1.79;100.00
6094;BME280;19964;42.060;24.700;2023-12-20T04:23:18;97624.44;;;1.76;100.00
6094;BME280;19964;42.060;24.700;2023-12-20T04:25:45;97570.03;;;1.37;100.00
6094;BME280;19964;42.060;24.700;2023-12-20T04:28:12;97627.84;;;1.69;100.00
6094;BME280;19964;42.060;24.700;2023-12-20T04:30:39;97617.19;;;1.57;100.00
6094;BME280;19964;42.060;24.700;2023-12-20T04:33:06;97619.19;;;1.70;100.00
6094;BME280;19964;42.060;24.700;2023-12-20T04:35:33;97621.25;;;1.74;100.00
6094;BME280;19964;42.060;24.700;2023-12-20T04:38:00;97620.44;;;1.82;100.00
6094;BME280;19964;42.060;24.700;2023-12-20T04:40:28;97618.09;;;1.72;100.00
6094;BME280;19964;42.060;24.700;2023-12-20T04:42:55;97620.44;;;1.82;100.00
6094;BME280;19964;42.060;24.700;2023-12-20T04:45:22;97597.47;;;1.74;100.00
6094;BME280;19964;42.060;24.700;2023-12-20T04:47:50;97606.94;;;1.73;100.00
6094;BME280;19964;42.060;24.700;2023-12-20T04:50:17;97562.31;;;1.15;100.00
6094;BME280;19964;42.060;24.700;2023-12-20T04:52:45;97605.28;;;1.42;100.00
6094;BME280;19964;42.060;24.700;2023-12-20T04:55:12;97608.16;;;1.39;100.00
6094;BME280;19964;42.060;24.700;2023-12-20T04:57:40;97589.53;;;1.30;100.00
6094;BME280;19964;42.060;24.700;2023-12-20T05:00:08;97598.25;;;1.44;100.00
6094;BME280;19964;42.060;24.700;2023-12-20T05:02:35;97589.50;;;1.38;100.00
6094;BME280;19964;42.060;24.700;2023-12-20T05:05:03;97593.50;;;1.33;100.00
6094;BME280;19964;42.060;24.700;2023-12-20T05:07:29;97595.28;;;1.32;100.00
6094;BME280;19964;42.060;24.700;2023-12-20T05:09:56;97586.63;;;1.41;100.00
6094;BME280;19964;42.060;24.700;2023-12-20T05:12:23;97580.91;;;1.31;100.00
6094;BME280;19964;42.060;24.700;2023-12-20T05:14:52;97571.06;;;1.20;100.00
6094;BME280;19964;42.060;24.700;2023-12-20T05:17:19;97575.16;;;1.29;100.00
6094;BME280;19964;42.060;24.700;2023-12-20T05:19:46;97573.13;;;1.25;100.00
6094;BME280;19964;42.060;24.700;2023-12-20T05:22:13;97563.44;;;1.12;100.00
6094;BME280;19964;42.060;24.700;2023-12-20T05:24:40;97570.91;;;1.14;100.00
6094;BME280;19964;42.060;24.700;2023-12-20T05:27:07;97554.47;;;1.24;100.00
6094;BME280;19964;42.060;24.700;2023-12-20T05:29:33;97568.56;;;1.51;100.00
6094;BME280;19964;42.060;24.700;2023-12-20T05:32:02;97556.81;;;1.34;100.00
6094;BME280;19964;42.060;24.700;2023-12-20T05:34:30;97560.22;;;1.57;100.00
6094;BME280;19964;42.060;24.700;2023-12-20T05:36:57;97559.84;;;1.37;100.00
6094;BME280;19964;42.060;24.700;2023-12-20T05:39:24;97561.66;;;1.29;100.00
6094;BME280;19964;42.060;24.700;2023-12-20T05:41:51;97552.38;;;1.28;100.00
6094;BME280;19964;42.060;24.700;2023-12-20T05:44:18;97553.00;;;1.38;100.00
6094;BME280;19964;42.060;24.700;2023-12-20T05:46:45;97553.16;;;1.36;100.00
6094;BME280;19964;42.060;24.700;2023-12-20T05:49:13;97556.28;;;1.46;100.00
6094;BME280;19964;42.060;24.700;2023-12-20T05:51:40;97541.34;;;1.35;100.00
6094;BME280;19964;42.060;24.700;2023-12-20T05:54:08;97512.25;;;1.14;100.00
6094;BME280;19964;42.060;24.700;2023-12-20T05:56:35;97551.91;;;1.32;100.00
6094;BME280;19964;42.060;24.700;2023-12-20T05:59:02;97535.78;;;1.32;100.00
6094;BME280;19964;42.060;24.700;2023-12-20T06:01:29;97537.34;;;1.33;100.00
6094;BME280;19964;42.060;24.700;2023-12-20T06:03:56;97541.97;;;1.37;100.00
6094;BME280;19964;42.060;24.700;2023-12-20T06:06:24;97531.75;;;1.45;100.00
6094;BME280;19964;42.060;24.700;2023-12-20T06:08:51;97539.56;;;1.44;100.00
6094;BME280;19964;42.060;24.700;2023-12-20T06:11:18;97531.13;;;1.35;100.00
6094;BME280;19964;42.060;24.700;2023-12-20T06:13:45;97529.88;;;1.31;100.00
6094;BME280;19964;42.060;24.700;2023-12-20T06:16:12;97535.75;;;1.40;100.00
6094;BME280;19964;42.060;24.700;2023-12-20T06:18:40;97537.34;;;1.33;100.00
6094;BME280;19964;42.060;24.700;2023-12-20T06:21:06;97538.16;;;1.33;100.00
6094;BME280;19964;42.060;24.700;2023-12-20T06:23:35;97534.78;;;1.41;100.00
6094;BME280;19964;42.060;24.700;2023-12-20T06:26:02;97430.00;;;0.73;100.00
6094;BME280;19964;42.060;24.700;2023-12-20T06:28:29;97529.38;;;1.36;100.00
6094;BME280;19964;42.060;24.700;2023-12-20T06:30:56;97531.44;;;1.40;100.00
6094;BME280;19964;42.060;24.700;2023-12-20T06:33:23;97531.91;;;1.44;100.00
6094;BME280;19964;42.060;24.700;2023-12-20T06:35:50;97534.47;;;1.44;100.00
6094;BME280;19964;42.060;24.700;2023-12-20T06:38:17;97528.38;;;1.45;100.00
6094;BME280;19964;42.060;24.700;2023-12-20T06:40:46;97473.06;;;1.07;100.00
6094;BME280;19964;42.060;24.700;2023-12-20T06:43:13;97532.81;;;1.51;100.00
6094;BME280;19964;42.060;24.700;2023-12-20T06:45:40;97423.25;;;0.88;100.00
6094;BME280;19964;42.060;24.700;2023-12-20T06:48:07;97521.09;;;1.64;100.00
6094;BME280;19964;42.060;24.700;2023-12-20T06:50:34;97527.25;;;1.78;100.00
6094;BME280;19964;42.060;24.700;2023-12-20T06:53:05;97528.22;;;1.77;100.00
6094;BME280;19964;42.060;24.700;2023-12-20T06:55:32;97527.56;;;1.83;100.00
6094;BME280;19964;42.060;24.700;2023-12-20T06:58:01;97527.25;;;1.78;100.00
6094;BME280;19964;42.060;24.700;2023-12-20T07:00:28;97528.00;;;1.87;100.00
6094;BME280;19964;42.060;24.700;2023-12-20T07:02:55;97531.06;;;1.82;100.00
6094;BME280;19964;42.060;24.700;2023-12-20T07:05:22;97525.72;;;1.69;100.00
6094;BME280;19964;42.060;24.700;2023-12-20T07:07:49;97523.44;;;1.74;100.00
6094;BME280;19964;42.060;24.700;2023-12-20T07:10:16;97524.03;;;1.84;100.00
6094;BME280;19964;42.060;24.700;2023-12-20T07:12:43;97514.16;;;1.81;100.00
6094;BME280;19964;42.060;24.700;2023-12-20T07:15:11;97507.13;;;1.83;100.00
6094;BME280;19964;42.060;24.700;2023-12-20T07:17:38;97515.38;;;1.93;100.00
6094;BME280;19964;42.060;24.700;2023-12-20T07:20:05;97518.88;;;1.92;100.00
6094;BME280;19964;42.060;24.700;2023-12-20T07:22:34;97511.06;;;1.86;100.00
6094;BME280;19964;42.060;24.700;2023-12-20T07:25:01;97504.75;;;2.04;100.00
6094;BME280;19964;42.060;24.700;2023-12-20T07:27:28;97505.25;;;2.00;100.00
6094;BME280;19964;42.060;24.700;2023-12-20T07:29:55;97509.03;;;2.04;100.00
6094;BME280;19964;42.060;24.700;2023-12-20T07:32:23;97501.94;;;2.14;100.00
6094;BME280;19964;42.060;24.700;2023-12-20T07:34:49;97500.13;;;2.22;100.00
6094;BME280;19964;42.060;24.700;2023-12-20T07:37:16;97490.59;;;2.16;100.00
6094;BME280;19964;42.060;24.700;2023-12-20T07:39:43;97495.94;;;2.07;100.00
6094;BME280;19964;42.060;24.700;2023-12-20T07:42:09;97481.28;;;2.23;100.00
6094;BME280;19964;42.060;24.700;2023-12-20T07:44:36;97486.19;;;2.91;100.00
6094;BME280;19964;42.060;24.700;2023-12-20T07:47:04;97488.38;;;4.43;100.00
6094;BME280;19964;42.060;24.700;2023-12-20T07:49:32;97508.97;;;5.66;100.00
6094;BME280;19964;42.060;24.700;2023-12-20T07:51:59;97517.63;;;6.12;100.00
6094;BME280;19964;42.060;24.700;2023-12-20T07:54:26;97521.25;;;7.34;97.53
6094;BME280;19964;42.060;24.700;2023-12-20T07:56:53;97535.06;;;7.96;90.28
6094;BME280;19964;42.060;24.700;2023-12-20T07:59:20;97524.84;;;8.95;85.65
6094;BME280;19964;42.060;24.700;2023-12-20T08:01:46;97533.97;;;9.34;78.90
6094;BME280;19964;42.060;24.700;2023-12-20T08:04:13;97547.59;;;10.07;76.13
6094;BME280;19964;42.060;24.700;2023-12-20T08:06:42;97544.41;;;10.23;72.10
6094;BME280;19964;42.060;24.700;2023-12-20T08:09:08;97539.88;;;10.18;72.00
6094;BME280;19964;42.060;24.700;2023-12-20T08:11:35;97536.63;;;11.10;69.05
6094;BME280;19964;42.060;24.700;2023-12-20T08:14:02;97545.22;;;12.46;63.16
6094;BME280;19964;42.060;24.700;2023-12-20T08:16:29;97537.44;;;13.13;60.35
6094;BME280;19964;42.060;24.700;2023-12-20T08:18:56;97541.13;;;13.55;58.42
6094;BME280;19964;42.060;24.700;2023-12-20T08:21:23;97547.53;;;14.44;56.87
6094;BME280;19964;42.060;24.700;2023-12-20T08:23:51;97521.63;;;15.43;55.11
6094;BME280;19964;42.060;24.700;2023-12-20T08:26:19;97521.88;;;16.38;52.14
6094;BME280;19964;42.060;24.700;2023-12-20T08:28:47;97519.03;;;16.75;51.12
6094;BME280;19964;42.060;24.700;2023-12-20T08:31:14;97499.56;;;15.24;52.88
6094;BME280;19964;42.060;24.700;2023-12-20T08:33:43;97487.59;;;14.44;54.54
6094;BME280;19964;42.060;24.700;2023-12-20T08:36:10;97492.50;;;13.61;55.96
6094;BME280;19964;42.060;24.700;2023-12-20T08:38:37;97477.78;;;13.06;57.23
6094;BME280;19964;42.060;24.700;2023-12-20T08:41:07;97477.19;;;12.16;58.74
6094;BME280;19964;42.060;24.700;2023-12-20T08:43:34;97472.88;;;12.22;59.02
6094;BME280;19964;42.060;24.700;2023-12-20T08:46:02;97465.47;;;12.14;58.52
6094;BME280;19964;42.060;24.700;2023-12-20T08:48:29;97454.72;;;11.94;59.36
6094;BME280;19964;42.060;24.700;2023-12-20T08:50:56;97454.53;;;12.12;58.90
6094;BME280;19964;42.060;24.700;2023-12-20T08:53:23;97432.19;;;12.11;58.84
6094;BME280;19964;42.060;24.700;2023-12-20T08:55:50;97440.38;;;12.03;59.13
6094;BME280;19964;42.060;24.700;2023-12-20T08:58:18;97441.09;;;12.15;58.85
6094;BME280;19964;42.060;24.700;2023-12-20T09:00:45;97418.81;;;12.19;61.11
6094;BME280;19964;42.060;24.700;2023-12-20T09:03:12;97420.44;;;12.08;60.78
6094;BME280;19964;42.060;24.700;2023-12-20T09:05:39;97360.16;;;10.37;62.51
6094;BME280;19964;42.060;24.700;2023-12-20T09:08:06;97412.16;;;10.36;63.09
6094;BME280;19964;42.060;24.700;2023-12-20T09:10:36;97395.72;;;9.07;67.54
6094;BME280;19964;42.060;24.700;2023-12-20T09:13:03;97404.41;;;9.42;69.53
6094;BME280;19964;42.060;24.700;2023-12-20T09:15:32;97394.59;;;9.32;70.26
6094;BME280;19964;42.060;24.700;2023-12-20T09:18:01;97394.28;;;8.74;69.95
6094;BME280;19964;42.060;24.700;2023-12-20T09:20:29;97393.94;;;8.89;70.23
6094;BME280;19964;42.060;24.700;2023-12-20T09:22:56;97388.38;;;9.22;68.58
6094;BME280;19964;42.060;24.700;2023-12-20T09:25:23;97359.09;;;9.39;68.87
6094;BME280;19964;42.060;24.700;2023-12-20T09:27:51;97370.59;;;9.96;68.24
6094;BME280;19964;42.060;24.700;2023-12-20T09:30:18;97375.78;;;10.42;67.80
6094;BME280;19964;42.060;24.700;2023-12-20T09:32:47;97373.59;;;10.86;64.86
6094;BME280;19964;42.060;24.700;2023-12-20T09:35:14;97340.31;;;11.06;63.24
6094;BME280;19964;42.060;24.700;2023-12-20T09:37:41;97358.94;;;10.91;63.68
6094;BME280;19964;42.060;24.700;2023-12-20T09:40:12;97353.81;;;10.68;64.13
6094;BME280;19964;42.060;24.700;2023-12-20T09:42:48;97350.81;;;9.49;66.63
6094;BME280;19964;42.060;24.700;2023-12-20T09:45:19;97349.81;;;8.72;70.77
6094;BME280;19964;42.060;24.700;2023-12-20T09:47:49;97325.78;;;9.20;70.17
6094;BME280;19964;42.060;24.700;2023-12-20T09:50:18;97340.69;;;9.47;69.38
6094;BME280;19964;42.060;24.700;2023-12-20T09:52:46;97333.25;;;10.27;69.35
6094;BME280;19964;42.060;24.700;2023-12-20T09:55:17;97327.16;;;10.96;66.77
6094;BME280;19964;42.060;24.700;2023-12-20T09:57:45;97328.47;;;11.26;62.50
6094;BME280;19964;42.060;24.700;2023-12-20T10:00:13;97330.44;;;11.64;61.42
6094;BME280;19964;42.060;24.700;2023-12-20T10:02:45;97316.63;;;11.75;61.09
6094;BME280;19964;42.060;24.700;2023-12-20T10:05:18;97306.97;;;11.42;60.90
6094;BME280;19964;42.060;24.700;2023-12-20T10:07:46;97300.47;;;11.56;63.55
6094;BME280;19964;42.060;24.700;2023-12-20T10:10:13;97300.75;;;11.27;63.84
6094;BME280;19964;42.060;24.700;2023-12-20T10:12:41;97296.88;;;11.29;62.51
6094;BME280;19964;42.060;24.700;2023-12-20T10:15:27;97297.78;;;11.51;62.94
6094;BME280;19964;42.060;24.700;2023-12-20T10:17:54;97296.38;;;11.16;60.98
6094;BME280;19964;42.060;24.700;2023-12-20T10:20:22;97291.81;;;11.84;61.28
6094;BME280;19964;42.060;24.700;2023-12-20T10:22:49;97287.19;;;11.86;60.91
6094;BME280;19964;42.060;24.700;2023-12-20T10:25:19;97283.16;;;11.29;61.92
6094;BME280;19964;42.060;24.700;2023-12-20T10:27:46;97276.09;;;11.41;62.79
6094;BME280;19964;42.060;24.700;2023-12-20T10:30:13;97237.13;;;10.35;65.42
6094;BME280;19964;42.060;24.700;2023-12-20T10:32:40;97264.53;;;10.87;63.38
6094;BME280;19964;42.060;24.700;2023-12-20T10:35:08;97259.63;;;11.35;64.09
6094;BME280;19964;42.060;24.700;2023-12-20T10:37:37;97263.97;;;11.63;61.30
6094;BME280;19964;42.060;24.700;2023-12-20T10:40:05;97257.72;;;12.14;61.76
6094;BME280;19964;42.060;24.700;2023-12-20T10:42:32;97255.97;;;12.19;60.45
6094;BME280;19964;42.060;24.700;2023-12-20T10:45:00;97196.47;;;11.41;61.53
6094;BME280;19964;42.060;24.700;2023-12-20T10:47:28;97235.81;;;11.05;62.21
6094;BME280;19964;42.060;24.700;2023-12-20T10:49:59;97240.00;;;11.89;63.71
6094;BME280;19964;42.060;24.700;2023-12-20T10:52:27;97248.22;;;12.03;61.79
6094;BME280;19964;42.060;24.700;2023-12-20T10:54:57;97236.16;;;12.35;60.26
6094;BME280;19964;42.060;24.700;2023-12-20T10:57:26;97233.63;;;12.40;59.32
6094;BME280;19964;42.060;24.700;2023-12-20T10:59:54;97211.94;;;12.51;58.83
6094;BME280;19964;42.060;24.700;2023-12-20T11:02:22;97221.78;;;12.49;57.95
6094;BME280;19964;42.060;24.700;2023-12-20T11:04:54;97215.03;;;12.48;58.89
6094;BME280;19964;42.060;24.700;2023-12-20T11:07:27;97210.31;;;12.45;59.28
6094;BME280;19964;42.060;24.700;2023-12-20T11:10:00;97191.31;;;12.44;59.92
6094;BME280;19964;42.060;24.700;2023-12-20T11:12:36;97210.84;;;12.47;59.45
6094;BME280;19964;42.060;24.700;2023-12-20T11:15:04;97203.84;;;12.26;59.80
6094;BME280;19964;42.060;24.700;2023-12-20T11:17:32;97201.03;;;11.68;60.13
6094;BME280;19964;42.060;24.700;2023-12-20T11:20:09;97198.97;;;11.70;60.92
6094;BME280;19964;42.060;24.700;2023-12-20T11:22:52;97189.94;;;11.55;61.24
6094;BME280;19964;42.060;24.700;2023-12-20T11:25:20;97176.72;;;11.57;61.16
6094;BME280;19964;42.060;24.700;2023-12-20T11:28:08;97174.63;;;10.88;63.69
6094;BME280;19964;42.060;24.700;2023-12-20T11:30:46;97173.56;;;10.72;64.97
6094;BME280;19964;42.060;24.700;2023-12-20T11:33:13;97160.44;;;10.34;65.11
6094;BME280;19964;42.060;24.700;2023-12-20T11:35:41;97157.06;;;9.82;67.26
6094;BME280;19964;42.060;24.700;2023-12-20T11:38:08;97132.13;;;9.76;68.27
6094;BME280;19964;42.060;24.700;2023-12-20T11:40:37;97147.75;;;9.69;67.63
6094;BME280;19964;42.060;24.700;2023-12-20T11:43:04;97159.38;;;9.55;68.78
6094;BME280;19964;42.060;24.700;2023-12-20T11:45:31;97152.56;;;9.77;68.34
6094;BME280;19964;42.060;24.700;2023-12-20T11:47:57;97142.19;;;9.89;68.18
6094;BME280;19964;42.060;24.700;2023-12-20T11:50:25;97142.38;;;9.71;69.24
6094;BME280;19964;42.060;24.700;2023-12-20T11:52:54;97132.22;;;9.69;70.56
6094;BME280;19964;42.060;24.700;2023-12-20T11:55:21;97121.44;;;9.72;69.38
6094;BME280;19964;42.060;24.700;2023-12-20T11:57:50;97123.50;;;9.99;68.74
6094;BME280;19964;42.060;24.700;2023-12-20T12:00:18;97108.38;;;9.91;68.29
6094;BME280;19964;42.060;24.700;2023-12-20T12:02:55;97117.31;;;10.00;68.69
6094;BME280;19964;42.060;24.700;2023-12-20T12:05:23;97113.34;;;9.80;69.51
6094;BME280;19964;42.060;24.700;2023-12-20T12:07:49;97113.31;;;9.92;69.84
6094;BME280;19964;42.060;24.700;2023-12-20T12:10:16;97100.72;;;10.24;69.28
6094;BME280;19964;42.060;24.700;2023-12-20T12:12:43;97096.44;;;10.29;68.69
6094;BME280;19964;42.060;24.700;2023-12-20T12:15:12;97091.81;;;10.48;68.71
6094;BME280;19964;42.060;24.700;2023-12-20T12:17:38;97093.13;;;10.34;69.86
6094;BME280;19964;42.060;24.700;2023-12-20T12:20:07;97079.63;;;10.32;70.77
6094;BME280;19964;42.060;24.700;2023-12-20T12:22:35;97085.09;;;10.63;70.58
6094;BME280;19964;42.060;24.700;2023-12-20T12:25:09;97080.28;;;10.89;69.64
6094;BME280;19964;42.060;24.700;2023-12-20T12:27:36;97084.06;;;10.98;68.40
6094;BME280;19964;42.060;24.700;2023-12-20T12:30:05;97033.81;;;10.16;66.25
6094;BME280;19964;42.060;24.700;2023-12-20T12:32:35;97087.97;;;10.50;68.72
6094;BME280;19964;42.060;24.700;2023-12-20T12:35:03;97074.50;;;10.20;69.75
6094;BME280;19964;42.060;24.700;2023-12-20T12:37:33;97077.44;;;10.40;68.67
6094;BME280;19964;42.060;24.700;2023-12-20T12:40:00;97081.69;;;10.46;68.36
6094;BME280;19964;42.060;24.700;2023-12-20T12:42:28;97059.25;;;10.52;68.99
6094;BME280;19964;42.060;24.700;2023-12-20T12:44:55;97022.22;;;10.35;67.42
6094;BME280;19964;42.060;24.700;2023-12-20T12:47:22;97076.63;;;10.68;67.21
6094;BME280;19964;42.060;24.700;2023-12-20T12:49:51;97041.53;;;10.60;67.28
6094;BME280;19964;42.060;24.700;2023-12-20T12:52:18;97069.63;;;10.35;68.21
6094;BME280;19964;42.060;24.700;2023-12-20T12:54:45;97056.09;;;9.77;69.54
6094;BME280;19964;42.060;24.700;2023-12-20T12:57:13;97061.78;;;9.91;69.84
6094;BME280;19964;42.060;24.700;2023-12-20T12:59:41;97059.53;;;10.22;69.31
6094;BME280;19964;42.060;24.700;2023-12-20T13:02:08;97060.44;;;10.44;69.56
6094;BME280;19964;42.060;24.700;2023-12-20T13:04:34;97061.06;;;10.51;69.45